Time;durP1;ratioP1;P1;durP2;ratioP2;P2;SDS_P1;SDS_P2;PMS_P1;PMS_P2;Temp;Humidity;BMP_temperature;BMP_pressure;BME280_temperature;BME280_humidity;BME280_pressure;Samples;Min_cycle;Max_cycle;Signal;HPM_P1;HPM_P2
2021/09/10 00:01:08;;;;;;;14.48;11.00;;;;;;;19.35;80.83;101117.56;4983614;28;20034;-79
2021/09/10 00:03:33;;;;;;;14.88;11.60;;;;;;;19.68;79.51;101116.88;5007259;28;20071;-79
2021/09/10 00:05:59;;;;;;;14.23;11.07;;;;;;;19.67;79.97;101119.66;5030660;28;20045;-79
2021/09/10 00:08:24;;;;;;;14.25;12.25;;;;;;;19.65;79.76;101117.09;5011348;28;20143;-78
2021/09/10 00:10:49;;;;;;;16.80;12.45;;;;;;;19.74;79.72;101123.59;4992234;28;20094;-78
2021/09/10 00:13:15;;;;;;;16.52;11.63;;;;;;;20.04;78.30;101115.09;4980616;28;20033;-78
2021/09/10 00:15:40;;;;;;;15.43;12.80;;;;;;;19.73;80.04;101112.09;4988751;28;20046;-79
2021/09/10 00:18:06;;;;;;;17.85;12.60;;;;;;;19.86;79.46;101108.50;5044708;28;20049;-78
2021/09/10 00:20:31;;;;;;;14.60;13.15;;;;;;;19.98;79.04;101104.09;4990769;28;20321;-77
2021/09/10 00:22:56;;;;;;;20.35;12.18;;;;;;;20.17;78.47;101104.34;5025178;28;20041;-78
2021/09/10 00:25:22;;;;;;;14.45;12.88;;;;;;;19.99;78.81;101101.28;5007487;28;20037;-77
2021/09/10 00:27:47;;;;;;;16.10;14.45;;;;;;;20.08;79.17;101100.63;5041281;28;20041;-78
2021/09/10 00:30:13;;;;;;;18.10;13.38;;;;;;;20.13;78.74;101094.94;5006166;28;20050;-78
2021/09/10 00:32:38;;;;;;;18.42;12.27;;;;;;;20.43;77.73;101091.72;5009141;28;20228;-79
2021/09/10 00:35:04;;;;;;;18.45;13.68;;;;;;;20.06;79.02;101096.34;5004129;28;20026;-78
2021/09/10 00:37:30;;;;;;;18.20;13.60;;;;;;;20.16;78.70;101089.38;4991004;28;20268;-78
2021/09/10 00:39:55;;;;;;;18.02;14.07;;;;;;;19.88;79.99;101090.63;4990110;28;20089;-78
2021/09/10 00:42:21;;;;;;;16.67;13.30;;;;;;;19.89;79.67;101089.69;5023284;28;20065;-78
2021/09/10 00:44:46;;;;;;;19.33;14.90;;;;;;;19.66;80.80;101092.22;4982399;28;20025;-78
2021/09/10 00:47:12;;;;;;;17.00;13.38;;;;;;;19.99;79.61;101089.81;5005731;28;20034;-78
2021/09/10 00:49:37;;;;;;;12.40;10.43;;;;;;;20.40;78.18;101089.28;4989908;28;20328;-78
2021/09/10 00:52:03;;;;;;;13.25;9.70;;;;;;;20.56;77.50;101093.41;5007492;28;20021;-78
2021/09/10 00:54:28;;;;;;;15.93;10.27;;;;;;;20.55;77.59;101095.19;4991306;28;20026;-78
2021/09/10 00:56:54;;;;;;;15.30;12.38;;;;;;;20.63;77.28;101091.97;4990027;28;20348;-78
2021/09/10 00:59:19;;;;;;;16.25;13.45;;;;;;;20.61;77.34;101086.78;5003689;28;20034;-78
2021/09/10 01:01:44;;;;;;;18.38;11.65;;;;;;;20.81;76.59;101087.00;5004554;28;20159;-79
2021/09/10 01:04:10;;;;;;;15.63;8.60;;;;;;;21.29;74.39;101087.50;4989552;28;20029;-79
2021/09/10 01:06:35;;;;;;;11.90;9.82;;;;;;;20.78;76.81;101085.44;5018959;28;20035;-79
2021/09/10 01:09:01;;;;;;;15.63;13.15;;;;;;;20.64;77.55;101075.88;5025559;28;20077;-79
2021/09/10 01:11:27;;;;;;;15.38;12.32;;;;;;;20.64;77.31;101072.38;4989270;28;20277;-78
2021/09/10 01:13:53;;;;;;;9.05;4.13;;;;;;;21.59;73.15;101078.00;4995519;28;20152;-79
2021/09/10 01:16:19;;;;;;;8.32;6.35;;;;;;;21.45;74.33;101079.13;4997817;28;20048;-78
2021/09/10 01:18:44;;;;;;;11.15;5.80;;;;;;;21.46;74.02;101078.13;5009958;28;20029;-78
2021/09/10 01:21:09;;;;;;;8.93;4.05;;;;;;;22.17;71.40;101082.00;4994827;28;20033;-78
2021/09/10 01:23:35;;;;;;;20.73;12.73;;;;;;;21.38;74.47;101082.41;5007446;28;20217;-78
2021/09/10 01:26:00;;;;;;;13.27;11.82;;;;;;;21.43;74.44;101083.72;5023750;28;20033;-79
2021/09/10 01:28:26;;;;;;;18.30;10.32;;;;;;;21.46;74.52;101083.47;4989266;28;20026;-78
2021/09/10 01:30:52;;;;;;;14.35;12.85;;;;;;;20.99;76.67;101082.88;5022995;28;20482;-78
2021/09/10 01:33:17;;;;;;;13.82;10.43;;;;;;;21.52;74.55;101084.81;4973257;28;20264;-78
2021/09/10 01:35:42;;;;;;;13.00;10.93;;;;;;;21.50;74.13;101078.72;5000403;28;20029;-78
2021/09/10 01:38:08;;;;;;;19.40;13.25;;;;;;;20.75;77.79;101069.69;4988685;28;20056;-79
2021/09/10 01:40:34;;;;;;;16.70;13.27;;;;;;;20.90;77.22;101076.47;4973850;28;20244;-79
2021/09/10 01:42:59;;;;;;;17.00;14.15;;;;;;;20.99;76.78;101077.56;5024077;28;20044;-79
2021/09/10 01:45:25;;;;;;;19.35;12.90;;;;;;;21.04;76.59;101080.66;4987296;28;20032;-79
2021/09/10 01:47:51;;;;;;;19.60;14.75;;;;;;;21.18;75.81;101070.72;4988765;28;20269;-78
2021/09/10 01:50:17;;;;;;;13.93;10.05;;;;;;;21.54;74.25;101080.19;5004360;28;20133;-78
2021/09/10 01:52:43;;;;;;;16.13;10.98;;;;;;;21.80;73.49;101080.66;5009090;28;20056;-78
2021/09/10 01:55:09;;;;;;;20.50;13.55;;;;;;;21.44;74.55;101079.22;5007508;28;20048;-78
2021/09/10 01:57:35;;;;;;;16.00;10.32;;;;;;;20.98;76.94;101075.00;5010569;28;20113;-78
2021/09/10 02:00:00;;;;;;;16.95;12.75;;;;;;;21.44;75.08;101076.56;5023353;28;20193;-78
2021/09/10 02:02:25;;;;;;;9.90;5.80;;;;;;;22.24;72.05;101069.81;5004147;28;20034;-78
2021/09/10 02:04:51;;;;;;;12.88;9.10;;;;;;;21.72;73.45;101067.16;4985234;28;20262;-78
2021/09/10 02:07:16;;;;;;;14.05;9.45;;;;;;;21.83;73.61;101074.22;4995179;28;20105;-81
2021/09/10 02:09:42;;;;;;;13.45;11.60;;;;;;;21.46;74.92;101074.63;4988809;28;20029;-81
2021/09/10 02:12:07;;;;;;;13.90;10.80;;;;;;;21.75;73.41;101071.34;4988157;28;20026;-82
2021/09/10 02:14:32;;;;;;;13.98;11.95;;;;;;;21.43;74.90;101074.88;5020955;28;20213;-81
2021/09/10 02:16:58;;;;;;;9.77;7.20;;;;;;;21.77;74.02;101067.56;5003583;28;20336;-81
2021/09/10 02:19:23;;;;;;;12.80;10.85;;;;;;;21.49;74.67;101081.53;5006808;28;20352;-81
2021/09/10 02:21:49;;;;;;;13.07;10.80;;;;;;;21.74;73.49;101080.31;4978492;28;20375;-81
2021/09/10 02:24:14;;;;;;;12.57;9.23;;;;;;;22.18;71.97;101086.38;5003920;28;20034;-81
2021/09/10 02:26:40;;;;;;;13.43;8.13;;;;;;;21.92;72.54;101084.13;5004328;28;20030;-78
2021/09/10 02:29:05;;;;;;;11.25;10.10;;;;;;;22.62;69.98;101071.84;4986197;28;20030;-79
2021/09/10 02:31:31;;;;;;;10.32;9.30;;;;;;;22.15;71.99;101079.47;5000112;28;20041;-79
2021/09/10 02:33:56;;;;;;;14.95;12.82;;;;;;;21.44;74.82;101087.22;5008237;28;20119;-78
2021/09/10 02:36:22;;;;;;;12.13;10.10;;;;;;;21.67;73.72;101090.66;5020037;28;20029;-78
2021/09/10 02:38:47;;;;;;;10.77;9.70;;;;;;;21.55;74.19;101083.69;5005459;28;20084;-78
2021/09/10 02:41:13;;;;;;;12.63;11.15;;;;;;;21.25;75.27;101088.72;5004309;28;20379;-78
2021/09/10 02:43:38;;;;;;;9.00;5.40;;;;;;;22.56;70.67;101080.41;4987947;28;20076;-78
2021/09/10 02:46:03;;;;;;;19.73;12.13;;;;;;;21.84;73.26;101087.41;4990089;28;20240;-79
2021/09/10 02:48:29;;;;;;;13.98;11.55;;;;;;;22.30;71.04;101090.66;4999195;28;20216;-78
2021/09/10 02:50:54;;;;;;;17.58;11.60;;;;;;;21.65;73.45;101093.44;5005110;28;20327;-78
2021/09/10 02:53:20;;;;;;;13.80;12.35;;;;;;;21.38;74.63;101087.72;5007436;28;20347;-78
2021/09/10 02:55:45;;;;;;;8.43;5.05;;;;;;;22.56;70.39;101087.56;5024244;28;20075;-78
2021/09/10 02:58:11;;;;;;;6.18;5.28;;;;;;;22.67;70.01;101079.47;5002088;28;20060;-78
2021/09/10 03:00:36;;;;;;;15.00;10.82;;;;;;;22.76;69.11;101083.97;4995003;28;20037;-79
2021/09/10 03:03:02;;;;;;;14.27;12.40;;;;;;;21.60;73.48;101092.16;4992041;28;20029;-79
2021/09/10 03:05:29;;;;;;;9.25;8.38;;;;;;;22.53;70.20;101090.50;5040743;28;20045;-78
2021/09/10 03:07:54;;;;;;;12.00;10.60;;;;;;;22.17;71.34;101090.00;4994483;28;20383;-78
2021/09/10 03:10:19;;;;;;;17.23;10.98;;;;;;;22.39;71.03;101087.22;4989703;28;20336;-78
2021/09/10 03:12:45;;;;;;;10.82;9.43;;;;;;;22.55;69.93;101086.69;5005338;28;20040;-78
2021/09/10 03:15:12;;;;;;;10.35;9.40;;;;;;;22.12;71.87;101102.88;5008023;28;20040;-78
2021/09/10 03:17:37;;;;;;;15.63;11.07;;;;;;;21.29;75.05;101082.16;4998588;28;20059;-78
2021/09/10 03:20:03;;;;;;;11.55;6.57;;;;;;;22.19;71.65;101085.38;4989053;28;20279;-78
2021/09/10 03:22:29;;;;;;;16.90;11.27;;;;;;;21.79;73.02;101089.66;5006216;28;20105;-78
2021/09/10 03:24:54;;;;;;;15.55;11.27;;;;;;;21.58;74.02;101099.44;5023430;28;20347;-79
2021/09/10 03:27:20;;;;;;;9.90;8.18;;;;;;;22.27;71.22;101093.63;5026945;28;20071;-78
2021/09/10 03:29:45;;;;;;;14.38;11.82;;;;;;;21.88;72.85;101096.00;4988097;28;20057;-79
2021/09/10 03:32:11;;;;;;;5.25;4.72;;;;;;;22.52;70.43;101095.00;5022777;28;20042;-78
2021/09/10 03:34:37;;;;;;;15.15;11.40;;;;;;;21.61;73.59;101097.34;5002625;28;20276;-78
2021/09/10 03:37:03;;;;;;;6.57;5.90;;;;;;;22.49;70.38;101095.25;5000563;28;20038;-78
2021/09/10 03:39:28;;;;;;;13.23;11.85;;;;;;;21.39;74.90;101086.72;4987681;28;20381;-78
2021/09/10 03:41:54;;;;;;;11.32;10.13;;;;;;;21.80;73.05;101091.31;5031243;28;20037;-78
2021/09/10 03:44:19;;;;;;;14.73;11.77;;;;;;;21.40;74.65;101091.09;4995345;28;20040;-77
2021/09/10 03:46:45;;;;;;;13.85;12.38;;;;;;;21.82;72.63;101086.69;4988163;28;20376;-78
2021/09/10 03:49:10;;;;;;;10.40;8.30;;;;;;;21.75;73.17;101087.34;5021472;28;20034;-78
2021/09/10 03:51:35;;;;;;;10.43;8.77;;;;;;;21.93;72.49;101091.13;5039765;28;20048;-78
2021/09/10 03:54:01;;;;;;;14.68;9.52;;;;;;;22.32;70.58;101086.06;4995537;28;20025;-78
2021/09/10 03:56:26;;;;;;;7.95;6.63;;;;;;;22.61;69.57;101091.53;5004614;28;20349;-78
2021/09/10 03:58:52;;;;;;;11.85;9.93;;;;;;;21.70;73.25;101100.22;4988065;28;20053;-78
2021/09/10 04:01:18;;;;;;;9.48;8.48;;;;;;;21.94;72.38;101092.81;5011195;28;20044;-78
2021/09/10 04:03:44;;;;;;;18.75;12.90;;;;;;;21.26;74.83;101092.22;4978644;28;20105;-78
2021/09/10 04:06:10;;;;;;;13.88;10.25;;;;;;;22.26;70.79;101099.91;4987971;28;20053;-78
2021/09/10 04:08:35;;;;;;;15.98;12.52;;;;;;;21.69;73.04;101101.19;5001501;28;20038;-78
2021/09/10 04:11:01;;;;;;;15.93;10.73;;;;;;;21.61;73.04;101105.34;4994426;28;20057;-78
2021/09/10 04:13:26;;;;;;;6.80;6.10;;;;;;;22.13;71.39;101100.09;5002332;28;20018;-78
2021/09/10 04:15:52;;;;;;;12.27;9.98;;;;;;;21.79;72.70;101099.44;4987667;28;20032;-78
2021/09/10 04:18:17;;;;;;;11.13;9.73;;;;;;;21.32;74.82;101096.19;5035749;28;20030;-78
2021/09/10 04:20:43;;;;;;;9.55;8.27;;;;;;;21.27;74.79;101096.59;4991025;28;20048;-78
2021/09/10 04:23:08;;;;;;;18.92;13.43;;;;;;;20.67;77.02;101096.94;5006908;28;20034;-78
2021/09/10 04:25:33;;;;;;;15.10;11.45;;;;;;;21.44;74.36;101097.88;5005317;28;20033;-81
2021/09/10 04:27:59;;;;;;;10.00;8.00;;;;;;;21.81;72.60;101103.69;4987568;28;20228;-80
2021/09/10 04:30:24;;;;;;;18.88;12.80;;;;;;;20.84;76.55;101092.91;5005908;28;20037;-80
2021/09/10 04:32:50;;;;;;;16.15;12.75;;;;;;;20.70;76.83;101090.50;4991145;28;20064;-80
2021/09/10 04:35:15;;;;;;;14.82;10.93;;;;;;;21.11;75.83;101096.16;5000324;28;20022;-79
2021/09/10 04:37:40;;;;;;;10.60;9.10;;;;;;;21.19;75.20;101091.03;5016610;28;20049;-77
2021/09/10 04:40:07;;;;;;;13.75;11.45;;;;;;;21.76;73.01;101102.38;4999539;28;20260;-78
2021/09/10 04:42:33;;;;;;;15.60;12.07;;;;;;;21.10;75.37;101087.31;4989378;28;20039;-78
2021/09/10 04:44:58;;;;;;;7.40;6.35;;;;;;;21.45;74.63;101080.94;4988299;28;20025;-78
2021/09/10 04:47:26;;;;;;;6.63;5.85;;;;;;;21.87;72.74;101081.00;4989239;28;20025;-78
2021/09/10 04:49:51;;;;;;;14.97;12.30;;;;;;;20.49;78.60;101079.75;5006863;28;20022;-79
2021/09/10 04:52:16;;;;;;;14.13;11.57;;;;;;;21.34;75.01;101076.47;4999201;28;20089;-79
2021/09/10 04:54:42;;;;;;;9.00;7.40;;;;;;;20.94;76.91;101078.88;5007224;28;20051;-79
2021/09/10 04:57:07;;;;;;;27.63;10.18;;;;;;;21.55;73.92;101081.84;4996829;28;20030;-79
2021/09/10 04:59:33;;;;;;;6.32;5.78;;;;;;;21.23;75.57;101080.03;4990002;28;20022;-79
2021/09/10 05:01:58;;;;;;;19.10;12.93;;;;;;;20.68;77.34;101077.34;5020894;28;20037;-78
2021/09/10 05:04:24;;;;;;;11.90;9.55;;;;;;;21.06;75.70;101080.53;4989252;28;20050;-78
2021/09/10 05:06:50;;;;;;;21.10;14.10;;;;;;;19.99;80.21;101085.34;5002928;28;20022;-78
2021/09/10 05:09:15;;;;;;;21.58;15.02;;;;;;;20.11;79.77;101080.91;4990376;28;20113;-79
2021/09/10 05:11:41;;;;;;;10.60;6.45;;;;;;;21.55;74.13;101081.03;4993382;28;20034;-81
2021/09/10 05:14:09;;;;;;;13.75;9.90;;;;;;;20.94;76.31;101084.19;5023411;28;20061;-81
2021/09/10 05:16:34;;;;;;;7.40;5.63;;;;;;;21.99;72.43;101082.63;5003433;28;20045;-81
2021/09/10 05:19:00;;;;;;;14.00;11.00;;;;;;;21.05;76.46;101085.03;5003747;28;20301;-79
2021/09/10 05:21:25;;;;;;;14.82;9.43;;;;;;;20.26;78.73;101092.16;5016304;28;20113;-78
2021/09/10 05:23:50;;;;;;;19.20;13.32;;;;;;;20.08;79.50;101091.78;5003460;28;20071;-78
2021/09/10 05:26:16;;;;;;;19.02;13.38;;;;;;;20.86;77.25;101098.97;5030784;28;20034;-78
2021/09/10 05:28:41;;;;;;;19.05;14.50;;;;;;;20.40;78.20;101099.91;4990897;28;20036;-78
2021/09/10 05:31:07;;;;;;;14.02;12.50;;;;;;;20.76;76.54;101105.16;4994988;28;20049;-77
2021/09/10 05:33:32;;;;;;;19.63;14.80;;;;;;;20.56;77.01;101104.88;5014010;28;20041;-78
2021/09/10 05:35:57;;;;;;;13.00;10.98;;;;;;;20.59;77.72;101109.09;5013064;28;20079;-78
2021/09/10 05:38:23;;;;;;;16.70;11.07;;;;;;;20.97;75.82;101114.06;4969425;28;20036;-78
2021/09/10 05:40:49;;;;;;;13.00;9.80;;;;;;;21.29;75.68;101115.97;4981976;28;20069;-80
2021/09/10 05:43:14;;;;;;;13.77;10.60;;;;;;;20.64;78.49;101118.44;5021896;28;20093;-80
2021/09/10 05:45:40;;;;;;;14.52;11.32;;;;;;;20.40;79.43;101125.69;4989471;28;20091;-81
2021/09/10 05:48:05;;;;;;;20.83;15.02;;;;;;;19.90;80.50;101131.22;4986792;28;20041;-80
2021/09/10 05:50:31;;;;;;;18.20;14.23;;;;;;;19.82;81.04;101125.66;4986650;28;20042;-82
2021/09/10 05:52:56;;;;;;;18.38;14.75;;;;;;;19.72;81.73;101131.63;4988150;28;20040;-80
2021/09/10 05:55:22;;;;;;;20.50;14.77;;;;;;;19.65;81.79;101127.75;4989877;28;20037;-81
2021/09/10 05:57:47;;;;;;;20.20;14.82;;;;;;;19.68;81.90;101137.28;5021862;28;20040;-80
2021/09/10 06:00:13;;;;;;;21.50;15.48;;;;;;;19.89;81.45;101130.38;5018179;28;20039;-81
2021/09/10 06:02:39;;;;;;;20.55;12.32;;;;;;;20.60;78.82;101132.09;5022248;28;20095;-81
2021/09/10 06:05:06;;;;;;;18.02;14.65;;;;;;;20.05;80.64;101138.06;4992007;28;20248;-81
2021/09/10 06:07:32;;;;;;;20.75;14.13;;;;;;;20.32;79.60;101136.91;4970189;28;20348;-80
2021/09/10 06:09:57;;;;;;;18.85;13.60;;;;;;;20.36;79.19;101138.38;4993870;28;20268;-81
2021/09/10 06:12:23;;;;;;;22.88;11.15;;;;;;;21.65;74.55;101145.91;4992908;28;20021;-82
2021/09/10 06:14:49;;;;;;;17.33;11.88;;;;;;;21.22;75.86;101150.22;4994283;28;20072;-82
2021/09/10 06:17:15;;;;;;;14.73;12.55;;;;;;;20.74;77.78;101144.34;5002714;28;20034;-82
2021/09/10 06:19:40;;;;;;;13.02;6.68;;;;;;;23.54;66.64;101148.28;4987373;28;20333;-82
2021/09/10 06:22:06;;;;;;;10.68;5.82;;;;;;;24.04;64.44;101152.66;5017129;28;20332;-82
2021/09/10 06:24:32;;;;;;;12.32;6.43;;;;;;;24.17;63.52;101149.69;5011724;28;20033;-82
2021/09/10 06:26:57;;;;;;;10.80;5.72;;;;;;;24.14;63.89;101160.69;5043613;28;20045;-82
2021/09/10 06:29:23;;;;;;;10.20;5.35;;;;;;;24.27;62.76;101160.38;4998474;28;20336;-82
2021/09/10 06:31:50;;;;;;;11.68;3.75;;;;;;;24.23;62.69;101162.50;5015565;28;20021;-81
2021/09/10 06:34:21;;;;;;;6.72;4.50;;;;;;;24.18;62.66;101162.09;5012307;28;20036;-82
2021/09/10 06:36:49;;;;;;;13.52;9.82;;;;;;;23.49;65.03;101163.88;4999262;28;20336;-82
2021/09/10 06:39:18;;;;;;;8.52;4.75;;;;;;;23.95;62.74;101170.41;5002299;28;20225;-83
2021/09/10 06:41:44;;;;;;;10.80;5.80;;;;;;;23.94;62.74;101166.06;5014088;28;20045;-82
2021/09/10 06:44:10;;;;;;;8.02;4.10;;;;;;;24.11;61.95;101169.81;5015072;28;20045;-82
2021/09/10 06:46:35;;;;;;;9.45;5.05;;;;;;;23.88;63.00;101171.94;4993807;28;20041;-82
2021/09/10 06:49:01;;;;;;;11.43;4.00;;;;;;;24.08;62.28;101177.28;4999585;28;20025;-82
2021/09/10 06:51:26;;;;;;;5.95;4.40;;;;;;;24.04;62.36;101181.25;5033625;28;20032;-82
2021/09/10 06:53:52;;;;;;;4.82;3.90;;;;;;;23.99;62.26;101173.63;5033084;28;20037;-82
2021/09/10 06:56:18;;;;;;;10.23;4.03;;;;;;;24.14;62.01;101171.38;5012375;28;20047;-82
2021/09/10 06:58:44;;;;;;;6.40;4.28;;;;;;;24.09;62.19;101181.66;5026649;28;20033;-82
2021/09/10 07:01:13;;;;;;;10.73;7.55;;;;;;;23.67;63.95;101182.75;5009151;28;20077;-85
2021/09/10 07:03:38;;;;;;;5.88;4.22;;;;;;;24.02;62.47;101183.22;5011409;28;20075;-82
2021/09/10 07:06:04;;;;;;;6.03;4.40;;;;;;;24.11;62.09;101183.19;5014600;28;20042;-82
2021/09/10 07:08:33;;;;;;;10.30;4.07;;;;;;;23.87;63.17;101190.84;4996476;28;20034;-82
2021/09/10 07:11:01;;;;;;;5.80;4.07;;;;;;;24.10;62.46;101188.69;5030845;28;20351;-82
2021/09/10 07:13:28;;;;;;;6.70;3.60;;;;;;;24.21;62.13;101193.03;4988409;28;20329;-82
2021/09/10 07:15:53;;;;;;;10.50;4.47;;;;;;;24.05;62.36;101188.28;4993734;28;20026;-82
2021/09/10 07:18:20;;;;;;;7.90;4.63;;;;;;;24.07;62.96;101194.34;5002894;28;20095;-82
2021/09/10 07:20:46;;;;;;;8.75;5.18;;;;;;;23.65;63.82;101191.88;5021193;28;20034;-82
2021/09/10 07:23:14;;;;;;;9.73;5.40;;;;;;;24.01;63.08;101200.25;4988825;28;20041;-80
2021/09/10 07:25:40;;;;;;;6.10;3.75;;;;;;;24.26;61.80;101202.34;5004221;28;20025;-83
2021/09/10 07:28:06;;;;;;;8.98;3.70;;;;;;;24.47;61.61;101210.19;4991904;28;20033;-83
2021/09/10 07:30:31;;;;;;;9.90;5.00;;;;;;;24.45;61.95;101206.81;4982910;28;20042;-83
2021/09/10 07:32:57;;;;;;;9.85;5.32;;;;;;;24.60;61.86;101209.91;4985884;28;20044;-83
2021/09/10 07:35:23;;;;;;;15.13;7.30;;;;;;;24.60;62.19;101220.63;5015875;28;20041;-82
2021/09/10 07:37:49;;;;;;;14.55;4.40;;;;;;;24.84;61.55;101219.28;5012484;28;20061;-82
2021/09/10 07:40:15;;;;;;;10.20;3.85;;;;;;;25.14;61.11;101222.69;4986691;28;20025;-83
2021/09/10 07:42:41;;;;;;;8.55;3.67;;;;;;;25.39;60.45;101222.00;5004152;28;20050;-82
2021/09/10 07:45:07;;;;;;;13.30;4.43;;;;;;;25.48;59.61;101217.59;4994960;28;20037;-83
2021/09/10 07:47:33;;;;;;;20.42;5.60;;;;;;;25.21;60.26;101216.59;5019317;28;20025;-82
2021/09/10 07:49:58;;;;;;;19.92;5.78;;;;;;;25.40;60.32;101222.88;5022805;28;20037;-83
2021/09/10 07:52:24;;;;;;;38.70;4.60;;;;;;;25.36;61.32;101211.59;5016392;28;20056;-82
2021/09/10 07:54:49;;;;;;;53.85;7.72;;;;;;;25.81;60.57;101231.34;4986463;28;20037;-84
2021/09/10 07:57:15;;;;;;;59.55;5.22;;;;;;;25.71;60.60;101227.91;5038799;28;20269;-83
2021/09/10 07:59:40;;;;;;;42.25;5.10;;;;;;;26.03;59.34;101227.38;5037534;28;20268;-82
2021/09/10 08:02:06;;;;;;;42.10;6.13;;;;;;;26.29;59.01;101227.44;5011505;28;20044;-82
2021/09/10 08:04:32;;;;;;;27.33;5.95;;;;;;;26.60;57.43;101230.53;4995122;28;20044;-83
2021/09/10 08:06:57;;;;;;;25.65;6.30;;;;;;;26.71;57.61;101237.50;5012804;28;20253;-82
2021/09/10 08:09:23;;;;;;;39.47;5.53;;;;;;;26.70;57.53;101243.84;5025990;28;20045;-82
2021/09/10 08:11:48;;;;;;;21.40;5.18;;;;;;;26.90;57.62;101241.78;4991886;28;20076;-83
2021/09/10 08:14:14;;;;;;;26.55;5.20;;;;;;;27.12;56.25;101244.94;5026551;28;20028;-83
2021/09/10 08:16:40;;;;;;;16.23;6.00;;;;;;;27.26;55.24;101238.09;5010303;28;20029;-83
2021/09/10 08:19:06;;;;;;;16.73;5.07;;;;;;;27.04;56.68;101245.75;4990115;28;20098;-82
2021/09/10 08:21:31;;;;;;;19.02;4.65;;;;;;;26.97;58.08;101245.53;4999274;28;20334;-83
2021/09/10 08:23:57;;;;;;;12.65;4.80;;;;;;;26.70;58.96;101248.41;5003257;28;20043;-83
2021/09/10 08:26:22;;;;;;;16.05;4.88;;;;;;;26.66;59.51;101241.66;4997383;28;20218;-83
2021/09/10 08:28:48;;;;;;;22.90;4.63;;;;;;;26.57;60.42;101243.41;5008145;28;20338;-84
2021/09/10 08:31:13;;;;;;;8.68;4.38;;;;;;;25.65;59.86;101242.75;4989796;28;20038;-85
2021/09/10 08:33:39;;;;;;;9.60;5.03;;;;;;;26.06;58.39;101251.22;5029733;28;20336;-85
2021/09/10 08:36:04;;;;;;;17.10;4.53;;;;;;;26.15;58.66;101250.31;5014395;28;20028;-83
2021/09/10 08:38:30;;;;;;;8.95;6.03;;;;;;;26.07;57.06;101252.06;5007074;28;20044;-83
2021/09/10 08:40:57;;;;;;;15.45;4.82;;;;;;;26.02;57.64;101250.69;5008996;28;20029;-82
2021/09/10 08:43:23;;;;;;;17.90;4.82;;;;;;;26.00;60.58;101247.31;5001438;28;20038;-84
2021/09/10 08:45:49;;;;;;;12.57;5.63;;;;;;;25.71;60.07;101249.34;5007887;28;20100;-83
2021/09/10 08:48:18;;;;;;;19.27;5.32;;;;;;;25.98;60.73;101249.31;5017234;28;20047;-82
2021/09/10 08:50:47;;;;;;;16.13;5.22;;;;;;;25.79;58.93;101258.31;5006520;28;20152;-84
2021/09/10 08:53:12;;;;;;;15.85;5.25;;;;;;;25.84;58.85;101263.22;4991868;28;20033;-84
2021/09/10 08:55:38;;;;;;;12.15;4.28;;;;;;;26.06;60.67;101264.66;5006616;28;20033;-83
2021/09/10 08:58:03;;;;;;;17.55;5.95;;;;;;;25.97;61.18;101265.56;5015203;28;20053;-83
2021/09/10 09:00:31;;;;;;;18.63;5.15;;;;;;;25.95;59.11;101267.56;5024219;28;20026;-84
2021/09/10 09:03:01;;;;;;;30.88;5.28;;;;;;;25.98;59.74;101268.09;5012203;28;20034;-84
2021/09/10 09:05:27;;;;;;;22.17;5.38;;;;;;;26.00;58.93;101273.31;5005074;28;20026;-83
2021/09/10 09:08:08;;;;;;;24.45;4.72;;;;;;;26.03;61.09;101273.88;4994339;28;20172;-84
2021/09/10 09:10:57;;;;;;;11.43;6.10;;;;;;;25.93;60.91;101275.75;5042571;28;20040;-82
2021/09/10 09:13:23;;;;;;;20.77;6.78;;;;;;;25.99;60.94;101282.34;5002412;28;20391;-84
2021/09/10 09:15:49;;;;;;;22.83;6.38;;;;;;;25.76;61.37;101276.53;4998447;28;20036;-83
2021/09/10 09:18:14;;;;;;;16.83;4.05;;;;;;;25.81;61.50;101285.00;4994774;28;20065;-83
2021/09/10 09:20:45;;;;;;;29.63;5.95;;;;;;;25.94;60.81;101282.84;5014079;28;20037;-83
2021/09/10 09:23:14;;;;;;;19.75;8.13;;;;;;;25.87;58.57;101281.72;5008398;28;20025;-83
2021/09/10 09:25:44;;;;;;;13.88;4.57;;;;;;;26.00;60.59;101284.06;5007320;28;20037;-82
2021/09/10 09:28:19;;;;;;;12.55;5.07;;;;;;;25.87;58.79;101281.72;5021580;28;20060;-84
2021/09/10 09:30:46;;;;;;;16.92;3.78;;;;;;;26.19;60.04;101288.41;5020194;28;20050;-84
2021/09/10 09:33:14;;;;;;;19.08;6.63;;;;;;;25.94;60.08;101287.34;4992698;28;20313;-84
2021/09/10 09:35:40;;;;;;;24.30;10.17;;;;;;;25.81;60.15;101293.03;5005328;28;20028;-84
2021/09/10 09:38:19;;;;;;;24.75;6.60;;;;;;;26.12;59.96;101296.22;5000887;28;20288;-83
2021/09/10 09:40:46;;;;;;;15.15;9.27;;;;;;;25.89;58.95;101289.59;4987520;28;20028;-82
2021/09/10 09:43:31;;;;;;;24.02;11.70;;;;;;;25.55;60.60;101298.28;5017678;28;20038;-83
2021/09/10 09:45:57;;;;;;;13.77;7.05;;;;;;;25.99;59.05;101296.59;5006311;28;20061;-83
2021/09/10 09:48:27;;;;;;;13.88;8.80;;;;;;;25.98;60.21;101294.94;5006196;28;20045;-83
2021/09/10 09:50:53;;;;;;;17.52;7.45;;;;;;;25.70;59.56;101304.81;5013911;28;20049;-83
2021/09/10 09:53:19;;;;;;;19.30;16.20;;;;;;;25.38;60.17;101303.44;4999027;28;20041;-82
2021/09/10 09:55:48;;;;;;;14.88;8.88;;;;;;;25.54;59.09;101296.59;5003298;28;20051;-81
2021/09/10 09:58:14;;;;;;;19.00;13.88;;;;;;;25.89;60.28;101293.13;4995459;28;20053;-82
2021/09/10 10:00:40;;;;;;;22.30;9.98;;;;;;;25.92;60.40;101294.66;5005056;28;20079;-83
2021/09/10 10:03:06;;;;;;;21.45;9.93;;;;;;;25.70;61.03;101290.56;5033165;28;20017;-82
2021/09/10 10:05:32;;;;;;;21.38;15.23;;;;;;;25.45;61.40;101291.13;4999063;28;20271;-82
2021/09/10 10:08:05;;;;;;;25.27;8.45;;;;;;;26.05;59.97;101300.56;5002257;28;20029;-82
2021/09/10 10:10:59;;;;;;;23.88;7.35;;;;;;;26.14;59.76;101296.09;5003014;28;20061;-83
2021/09/10 10:13:30;;;;;;;17.05;8.38;;;;;;;25.81;59.68;101296.59;4980899;28;20072;-84
2021/09/10 10:15:56;;;;;;;20.70;13.30;;;;;;;25.79;58.07;101298.53;5017680;28;20029;-85
2021/09/10 10:18:41;;;;;;;24.17;15.43;;;;;;;25.55;58.52;101300.97;5003242;28;20228;-84
2021/09/10 10:21:12;;;;;;;39.30;23.83;;;;;;;25.66;58.01;101296.22;5012885;28;20077;-85
2021/09/10 10:23:44;;;;;;;31.60;20.75;;;;;;;25.66;58.07;101309.63;5012853;28;20107;-84
2021/09/10 10:26:17;;;;;;;31.38;21.60;;;;;;;25.34;58.90;101301.19;5043430;28;20029;-82
2021/09/10 10:28:46;;;;;;;32.35;18.88;;;;;;;25.48;58.63;101306.06;5020374;28;20016;-84
2021/09/10 10:31:12;;;;;;;27.65;20.23;;;;;;;25.59;57.98;101310.38;5017282;28;20233;-84
2021/09/10 10:34:03;;;;;;;25.63;20.38;;;;;;;25.53;58.11;101313.69;5034921;28;20321;-83
2021/09/10 10:36:30;;;;;;;21.95;19.33;;;;;;;25.68;58.09;101312.19;5032316;28;20260;-83
2021/09/10 10:39:08;;;;;;;23.08;20.58;;;;;;;25.97;56.76;101311.19;4991623;28;20038;-83
2021/09/10 10:41:46;;;;;;;31.20;19.42;;;;;;;25.89;57.07;101308.38;5016574;28;20214;-83
2021/09/10 10:44:30;;;;;;;24.02;20.98;;;;;;;25.41;58.68;101313.00;5011229;28;20026;-83
2021/09/10 10:47:05;;;;;;;23.50;19.13;;;;;;;25.67;57.84;101305.13;5026432;28;20029;-83
2021/09/10 10:49:34;;;;;;;23.15;17.85;;;;;;;25.47;58.24;101315.97;5002933;28;20273;-84
2021/09/10 10:52:00;;;;;;;17.52;15.48;;;;;;;25.36;58.69;101316.16;5012008;28;20025;-84
2021/09/10 10:54:26;;;;;;;16.40;14.73;;;;;;;25.32;58.51;101312.06;5005558;28;20113;-83
2021/09/10 10:56:52;;;;;;;16.95;15.35;;;;;;;25.34;58.20;101314.59;4988486;28;20042;-84
2021/09/10 10:59:19;;;;;;;17.25;15.07;;;;;;;25.29;58.68;101309.69;5010555;28;20029;-84
2021/09/10 11:04:45;;;;;;;16.25;14.57;;;;;;;25.22;58.61;101300.53;5016903;28;20048;-82
2021/09/10 11:07:11;;;;;;;15.95;14.30;;;;;;;25.27;58.16;101303.63;5003506;28;20030;-83
2021/09/10 11:09:37;;;;;;;15.30;13.98;;;;;;;25.23;58.53;101312.91;4992596;28;20280;-84
2021/09/10 11:12:02;;;;;;;15.60;14.10;;;;;;;25.13;58.92;101312.13;5012552;28;20265;-85
2021/09/10 11:14:32;;;;;;;14.38;12.82;;;;;;;25.20;58.33;101305.19;4982433;28;20049;-84